Steptoe Valley North, Nevada Weather observations

Data are for 10 minute period ending at time listed.
 Day   Time   Solar   Ave.   Ave.  Ave.  Vector  Max.   Baro.   Total    
  of    of     Rad.   Air    Rel.  Wind   Wind   Wind  Press.  Precip.   
Year   Day            Temp.  Hum.  Speed  Dir.   Gust                    
2015   (PST)  Kw/m2    F      %     mph   deg.    mph    mb.     in.     
-------------------------------------------------------------------------
 147    0:00   0.00   43.3    94    1.6   237     2.8   820.8    0.00 
 147    0:10   0.00   43.6    94    2.5   245     3.8   820.8    0.00 
 147    0:20   0.00   42.6    94    0.5   234     1.8   820.8    0.00 
 147    0:30   0.00   42.4    95    0.1   231     0.7   820.7    0.00 
 147    0:40   0.00   43.1    96    0.9   164     4.2   820.6    0.00 
 147    0:50   0.00   41.5    94    3.3   146     4.7   820.6    0.00 
 147    1:00   0.00   41.0    96    2.1   150     2.9   820.7    0.00 
 147    1:10   0.00   41.7    97    2.5   102     3.5   820.7    0.00 
 147    1:20   0.00   41.5    96    3.9   139     5.1   820.7    0.00 
 147    1:30   0.00   40.9    96    5.1   206     6.5   820.7    0.00 
 147    1:40   0.00   41.3    97    5.0   194     6.8   820.6    0.00 
 147    1:50   0.00   41.5    97    4.4   182     5.9   820.6    0.00 
 147    2:00   0.00   42.2    97    4.0   179     5.0   820.6    0.00 
 147    2:10   0.00   42.2    97    4.0   191     6.1   820.6    0.00 
 147    2:20   0.00   42.5    97    3.3   162     5.7   820.6    0.00 
 147    2:30   0.00   42.1    97    2.9   172     4.8   820.6    0.00 
 147    2:40   0.00   42.4    97    3.9   175     4.7   820.6    0.00 
 147    2:50   0.00   42.3    97    5.0   145     6.4   820.6    0.00 
 147    3:00   0.00   42.9    98    3.7   158     7.7   820.6    0.00 
 147    3:10   0.00   43.4    98    7.0   297    15.8   821.5    0.00 
 147    3:20   0.00   44.7    96   11.1   337    21.6   821.9    0.00 
 147    3:30   0.00   46.2    88   14.1   340    20.1   821.9    0.00 
 147    3:40   0.00   46.4    87   14.4   334    22.4   821.8    0.01 
 147    3:50   0.00   46.8    87   12.3   322    18.0   822.1    0.01 
 147    4:00   0.00   45.8    89    8.5   345    12.8   822.4    0.03 
 147    4:10   0.00   45.4    91    9.6     2    14.6   822.3    0.01 
 147    4:20   0.00   45.6    90   10.0   359    15.5   822.4    0.02 
 147    4:30   0.00   45.6    89    6.2     3    10.3   822.5    0.02 
 147    4:40   0.00   45.7    88   11.2    62    20.5   821.5    0.00 
 147    4:50   0.01   45.1    92   11.4   103    17.5   821.2    0.00 
 147    5:00   0.01   45.4    91    9.8    87    15.6   821.4    0.00 
 147    5:10   0.02   45.8    91    9.3    90    13.9   821.4    0.00 
 147    5:20   0.04   46.2    91    6.0    85     9.6   821.3    0.00 
 147    5:30   0.05   46.6    90    3.3   114     6.4   821.4    0.00 
 147    5:40   0.06   47.2    90    2.5   222     5.8   821.3    0.00 
 147    5:50   0.06   46.6    91    6.8   240    10.3   821.4    0.00 
 147    6:00   0.05   46.1    92    6.7   243     9.5   821.5    0.00 
 147    6:10   0.04   46.3    92    5.2   276     6.9   821.7    0.00 
 147    6:20   0.03   46.7    91    6.1   271     8.3   822.0    0.00 
 147    6:30   0.03   47.1    88    5.1   313     7.1   822.3    0.01 
 147    6:40   0.03   46.9    90    2.3   243     4.4   822.5    0.01 
 147    6:50   0.02   47.2    91    7.9   170    11.6   822.5    0.01 
 147    7:00   0.02   46.9    92    9.6   170    13.5   822.5    0.03 
 147    7:10   0.03   46.7    92   11.9   157    16.1   822.2    0.01 
 147    7:20   0.05   47.1    90   13.6   154    19.7   821.9    0.00 
 147    7:30   0.07   47.6    88   13.1   168    18.9   822.0    0.00 
 147    7:40   0.07   48.2    87    9.4   172    13.7   822.0    0.00 
 147    7:50   0.08   48.5    85    7.9   189    11.8   822.0    0.00 
 147    8:00   0.11   48.9    84    9.2   180    15.9   821.6    0.00 
 147    8:10   0.21   49.7    82    9.8   213    14.4   821.6    0.00 
 147    8:20   0.29   51.2    80   11.7   214    16.3   821.6    0.00 
 147    8:30   0.55   52.2    79   12.4   214    16.9   821.6    0.00 
 147    8:40   0.70   54.3    76   14.2   213    19.5   821.6    0.00 
 147    8:50   0.69   54.8    74   12.8   216    18.6   821.6    0.00 
 147    9:00   0.37   54.4    74   12.6   222    18.2   821.7    0.00 
 147    9:10   0.31   53.2    75   13.8   216    19.1   821.8    0.00 
 147    9:20   0.42   52.9    78   14.8   213    22.3   821.8    0.00 
 147    9:30   0.39   53.1    78   16.6   204    24.1   821.7    0.00 
 147    9:40   0.90   54.8    78   17.9   206    23.4   821.7    0.00 
 147    9:50   0.92   56.2    74   16.7   206    22.4   821.8    0.00 
 147   10:00   0.64   56.5    73   13.9   206    19.6   821.8    0.00 
 147   10:10   0.58   57.1    69   12.8   201    18.3   821.8    0.00 
 147   10:20   0.45   57.8    65   13.2   202    19.6   821.8    0.00 
 147   10:30   0.67   58.3    64   14.0   196    19.8   821.9    0.00 
 147   10:40   0.93   59.1    64   15.8   196    21.8   822.0    0.00 
 147   10:50   1.13   59.9    62   15.7   198    21.4   822.0    0.00 
 147   11:00   0.94   60.8    60   15.3   197    21.2   821.9    0.00 
 147   11:10   0.88   60.4    59   15.6   188    21.2   821.7    0.00 
 147   11:20   0.54   59.7    58   13.6   189    19.0   821.6    0.00 
 147   11:30   0.94   60.5    58   12.9   184    18.0   821.6    0.00 
 147   11:40   1.00   61.2    57   12.8   198    18.0   821.5    0.00 
 147   11:50   0.99   61.9    57   10.5   197    15.5   821.3    0.00 
 147   12:00   1.01   62.7    57   11.1   208    15.5   821.3    0.00 
 147   12:10   0.81   62.5    56   11.5   200    15.9   821.1    0.00 
 147   12:20   1.04   63.5    55   10.2   209    15.6   821.0    0.00 
 147   12:30   0.99   64.4    53    9.6   197    15.4   820.9    0.00 
 147   12:40   0.79   64.1    50   10.1   199    17.8   820.8    0.00 
 147   12:50   0.52   63.4    51   12.6   200    18.6   820.7    0.00 
 147   13:00   0.49   61.8    55   11.9   207    16.6   820.6    0.00 
 147   13:10   0.34   61.2    55   10.3   209    14.3   820.6    0.00 
 147   13:20   0.22   60.9    56    9.7   204    13.7   820.4    0.00 
 147   13:30   0.14   59.9    57   11.0   207    15.4   820.4    0.00 
 147   13:40   0.14   59.7    59    9.2   207    13.9   820.3    0.00 
 147   13:50   0.12   59.7    61    9.6   208    13.3   820.1    0.00 
 147   14:00   0.18   59.4    62    9.9   224    14.2   819.9    0.00 
 147   14:10   0.21   59.3    61   11.9   226    17.0   819.9    0.00 
 147   14:20   0.28   59.8    61   13.0   223    18.5   820.0    0.00 
 147   14:30   0.22   60.0    61   14.7   220    20.4   819.8    0.00 
 147   14:40   0.08   59.1    62   18.7   210    30.4   819.8    0.00 
 147   14:50   0.04   57.0    61   22.9   199    33.6   819.8    0.00 
 147   15:00   0.05   55.5    63   23.2   201    33.8   819.9    0.00 
 147   15:10   0.03   54.6    67   18.7   203    27.8   820.2    0.00 
 147   15:20   0.02   54.3    68   15.1   213    21.3   820.7    0.00 
 147   15:30   0.03   53.5    71   16.0   213    23.9   820.8    0.00 
 147   15:40   0.03   52.4    75   14.2   206    19.8   820.7    0.00 
 147   15:50   0.04   52.5    74   14.1   199    20.6   820.5    0.00 
 147   16:00   0.05   53.1    70   16.2   196    22.5   820.5    0.00 
 147   16:10   0.07   53.2    70   14.4   203    22.2   820.7    0.00 
 147   16:20   0.07   53.1    71   14.1   189    21.7   820.4    0.00 
 147   16:30   0.09   53.2    71    7.5   217    13.8   820.7    0.00 
 147   16:40   0.13   53.7    71    4.5   237     6.9   820.8    0.00 
 147   16:50   0.14   54.3    71    4.3   225     6.4   821.0    0.00 
 147   17:00   0.15   55.1    70    2.9   170     5.0   821.1    0.00 
 147   17:10   0.32   56.7    66    3.6   161     5.0   821.1    0.00 
 147   17:20   0.26   57.3    64    6.0   155     9.2   821.1    0.00 
 147   17:30   0.32   57.5    64    5.8   132    10.2   821.0    0.00 
 147   17:40   0.22   57.3    61    5.6   100     9.7   821.2    0.00 
 147   17:50   0.16   57.5    59    3.1   110     7.1   821.2    0.00 
 147   18:00   0.13   58.5    57    1.0    80     2.3   821.3    0.00 
 147   18:10   0.11   58.6    60    2.3    14     4.2   821.4    0.00 
 147   18:20   0.07   56.9    67    3.0   351     4.0   821.5    0.00 
 147   18:30   0.03   54.8    72    2.2    23     3.7   821.5    0.00 
 147   18:40   0.02   53.4    75    2.8    45     4.8   821.4    0.00 
 147   18:50   0.01   52.2    77    3.5    40     6.1   821.3    0.00 
 147   19:00   0.01   49.9    82    3.2     9     4.5   821.3    0.00 
 147   19:10   0.00   49.1    84    2.6   340     3.1   821.1    0.00 
 147   19:20   0.00   48.9    86    2.9   282     3.4   821.0    0.00 
 147   19:30   0.00   48.9    86    2.5   297     3.3   821.0    0.00 
 147   19:40   0.00   48.9    85    0.3   285     1.6   821.1    0.00 
 147   19:50   0.00   49.8    84    1.5   272     2.4   821.2    0.00 

Return to Steptoe Valley North graphs page.


Western Regional Climate Center,wrcc@dri.edu